WetterOnline ( https://www.wetteronline.de )

Wetter aktuell Rødby

Aktuelles Wetter: Westermarkelsdorf (9m)

6-stündlich | Neueste Meldungen
Ortszeit Temperatur Wetter
Mi, 24.07. 2:00 18.4° C wolkig
Di, 23.07. 20:00 19.5° C wolkig
Di, 23.07. 14:00 20.8° C wolkig
Di, 23.07. 8:00 17.8° C bewölkt
Di, 23.07. 2:00 16.7° C fast wolkenlos
Mo, 22.07. 20:00 18.7° C leicht bewölkt
Mo, 22.07. 14:00 18.1° C bedeckt
Mo, 22.07. 8:00 19.3° C leichter Regen
Ortszeit Temperatur Wetter
Mi, 24.07. 7:00 16.9° C leicht bewölkt
Mi, 24.07. 6:40 16.9° C wolkig
Mi, 24.07. 6:30 17.1° C bedeckt
Mi, 24.07. 6:20 17.1° C bedeckt
Mi, 24.07. 6:10 17.2° C bedeckt
Mi, 24.07. 6:00 17.3° C bedeckt
Mi, 24.07. 5:50 17.3° C bedeckt
Mi, 24.07. 5:30 17.4° C bedeckt
Mi, 24.07. 5:00 17.4° C bedeckt
Mi, 24.07. 4:30 17.7° C wolkig
Mi, 24.07. 4:00 17.7° C leicht bewölkt
Ortszeit Relative Feuchte Sichtweite
Mi, 24.07. 2:00 93% 30 km
Di, 23.07. 20:00 84% 40 km
Di, 23.07. 14:00 86% 30 km
Di, 23.07. 8:00 78% >70 km
Di, 23.07. 2:00 78% 60 km
Mo, 22.07. 20:00 71% 55 km
Mo, 22.07. 14:00 87% 40 km
Mo, 22.07. 8:00 99% 12 km
Ortszeit Relative Feuchte Sichtweite
Mi, 24.07. 7:00 85% 35 km
Mi, 24.07. 6:40 85% -
Mi, 24.07. 6:30 84% 40 km
Mi, 24.07. 6:20 84% -
Mi, 24.07. 6:10 84% -
Mi, 24.07. 6:00 84% 40 km
Mi, 24.07. 5:50 84% -
Mi, 24.07. 5:30 81% 55 km
Mi, 24.07. 5:00 83% 55 km
Mi, 24.07. 4:30 89% 45 km
Mi, 24.07. 4:00 88% 40 km
Ortszeit Niederschlagsmenge Niederschlagsart
Mi, 24.07. 2:00 0.0 l/m2 in 6 Std. -
Di, 23.07. 20:00 7 l/m2 in 12 Std. Regen
Di, 23.07. 14:00 7 l/m2 in 6 Std. Regen, Niederschlag
Di, 23.07. 8:00 0.1 l/m2 in 12 Std. Regen
Di, 23.07. 2:00 0.0 l/m2 in 6 Std. -
Mo, 22.07. 20:00 3 l/m2 in 12 Std. -
Mo, 22.07. 14:00 3 l/m2 in 6 Std. Regen
Mo, 22.07. 8:00 0.1 l/m2 in 12 Std. Regen
Ortszeit Niederschlagsmenge Niederschlagsart
Mi, 24.07. 7:00 keine Meldung -
Mi, 24.07. 6:40 keine Meldung -
Mi, 24.07. 6:30 0.0 l/m2 in 30 Min -
Mi, 24.07. 6:20 keine Meldung -
Mi, 24.07. 6:10 keine Meldung -
Mi, 24.07. 6:00 0.0 l/m2 in 1 Std. -
Mi, 24.07. 5:50 keine Meldung -
Mi, 24.07. 5:30 0.0 l/m2 in 30 Min -
Mi, 24.07. 5:00 0.0 l/m2 in 1 Std. -
Mi, 24.07. 4:30 0.0 l/m2 in 30 Min -
Mi, 24.07. 4:00 0.0 l/m2 in 1 Std. -
Ortszeit Stärke Spitze Richtung
km/h Bft. km/h Grad Sektor
Mi, 24.07. 2:00 31 5 39 290° W
Di, 23.07. 20:00 13 3 28 220° SW
Di, 23.07. 14:00 6 1 74 170° S
Di, 23.07. 8:00 15 3 24 160° S
Di, 23.07. 2:00 11 2 36 240° SW
Mo, 22.07. 20:00 31 5 52 290° W
Mo, 22.07. 14:00 41 6 56 290° W
Mo, 22.07. 8:00 31 5 37 270° W
Ortszeit Stärke Spitze Richtung
km/h Bft. km/h Grad Sektor
Mi, 24.07. 7:00 30 5 41 300° NW
Mi, 24.07. 6:40 30 5 - 290° W
Mi, 24.07. 6:30 33 5 41 300° NW
Mi, 24.07. 6:20 33 5 - 300° NW
Mi, 24.07. 6:10 33 5 - 300° NW
Mi, 24.07. 6:00 31 5 41 300° NW
Mi, 24.07. 5:50 31 5 - 300° NW
Mi, 24.07. 5:30 28 4 41 300° NW
Mi, 24.07. 5:00 35 5 41 300° NW
Mi, 24.07. 4:30 33 5 41 300° NW
Mi, 24.07. 4:00 31 5 41 290° W
Ortszeit Untergrenze Bedeckung Gattung
total tief tief mittel hoch
Mi, 24.07. 2:00 390 m 5/8 5/8 - - -
Di, 23.07. 20:00 1800 m 8/8 1/8 - - -
Di, 23.07. 14:00 1380 m 7/8 4/8 - - -
Di, 23.07. 8:00 1320 m 7/8 7/8 - - -
Di, 23.07. 2:00 2400 m 1/8 1/8 - - -
Mo, 22.07. 20:00 1050 m 2/8 2/8 - - -
Mo, 22.07. 14:00 510 m 8/8 8/8 - - -
Mo, 22.07. 8:00 150 m 8/8 8/8 - - -
Ortszeit Bedeckungsgrad in Achtel und Wolkenuntergrenze
Mi, 24.07. 7:00 3(600m)
Mi, 24.07. 6:40 5
Mi, 24.07. 6:30 8(570m)
Mi, 24.07. 6:20 8(570m)
Mi, 24.07. 6:10 8
Mi, 24.07. 6:00 8(600m)
Mi, 24.07. 5:50 8(600m)
Mi, 24.07. 5:30 8(600m)
Mi, 24.07. 5:00 8(600m)
Mi, 24.07. 4:30 3(690m) 6(2700m)
Mi, 24.07. 4:00 1(360m) 3(810m)
Ortszeit Luftdruck NN (hPa) Tendenz (hPa in 3 Std.)
Mi, 24.07. 2:00 1014 + 0,6
Di, 23.07. 20:00 1014 + 0,1
Di, 23.07. 14:00 1014 - 0,5
Di, 23.07. 8:00 1015 - 0,9
Di, 23.07. 2:00 1017 0,0
Mo, 22.07. 20:00 1016 + 1,0
Mo, 22.07. 14:00 1013 + 2,6
Mo, 22.07. 8:00 1009 + 0,9
Ortszeit Luftdruck NN (hPa) Tendenz (hPa in 3 Std.)
Mi, 24.07. 7:00 1015 + 0,7
Mi, 24.07. 6:40 1015 keine Meldung
Mi, 24.07. 6:30 1015 + 0,7
Mi, 24.07. 6:20 1015 keine Meldung
Mi, 24.07. 6:10 1015 keine Meldung
Mi, 24.07. 6:00 1015 + 0,4
Mi, 24.07. 5:50 1015 keine Meldung
Mi, 24.07. 5:30 1015 + 0,4
Mi, 24.07. 5:00 1015 + 0,3
Mi, 24.07. 4:30 1015 + 0,3
Mi, 24.07. 4:00 1014 + 0,3
Ortszeit Schneehöhe (cm)
Mi, 24.07. 2:00 0
Di, 23.07. 20:00 0
Di, 23.07. 14:00 0
Di, 23.07. 8:00 0
Di, 23.07. 2:00 0
Mo, 22.07. 20:00 0
Mo, 22.07. 14:00 0
Mo, 22.07. 8:00 0
Ortszeit Schneehöhe (cm)
Mi, 24.07. 7:00 -
Mi, 24.07. 6:40 -
Mi, 24.07. 6:30 0
Mi, 24.07. 6:20 0
Mi, 24.07. 6:10 -
Mi, 24.07. 6:00 0
Mi, 24.07. 5:50 0
Mi, 24.07. 5:30 0
Mi, 24.07. 5:00 0
Mi, 24.07. 4:30 0
Mi, 24.07. 4:00 0
Link zu dieser Seite / Seite empfehlen

Das Wetter in ...